Terminal Aerodrome Forecast
Issued by NWS Shreveport, LA

Home | Current Version | Previous Version | Text Only | Print | Product List | Glossary On
Versions: 1 2 3 4 5 6 7 8 9 10 11 12 13 14 15 16
000
FTUS44 KSHV 301700
TAFMLU
TAF
KMLU 301737Z 3018/3118 34005KT 6SM -RA BR SCT008 BKN040 OVC080
      TEMPO 3018/3019 3SM RA BR BKN008 OVC018
     FM302000 16008KT P6SM VCTS OVC040CB
      TEMPO 3021/3101 2SM +TSRA BKN015 OVC030CB
     FM310300 18009KT 6SM BR BKN015
     FM310700 18006KT 2SM BR OVC008
     FM311500 20006KT P6SM OVC015=

USA.gov is the U.S. government's official web portal to all federal, state and local government web resources and services.